sensor_id;sensor_type;location;lat;lon;timestamp;temperature;humidity
21759;DHT22;11041;50.854;20.580;2023-06-14T00:00:39;12.70;99.90
21759;DHT22;11041;50.854;20.580;2023-06-14T00:03:26;12.70;99.90
21759;DHT22;11041;50.854;20.580;2023-06-14T00:05:53;12.80;99.90
21759;DHT22;11041;50.854;20.580;2023-06-14T00:08:20;12.80;99.90
21759;DHT22;11041;50.854;20.580;2023-06-14T00:10:48;12.80;99.90
21759;DHT22;11041;50.854;20.580;2023-06-14T00:13:15;12.90;99.90
21759;DHT22;11041;50.854;20.580;2023-06-14T00:15:42;12.80;99.90
21759;DHT22;11041;50.854;20.580;2023-06-14T00:18:09;12.80;99.90
21759;DHT22;11041;50.854;20.580;2023-06-14T00:20:37;12.70;99.90
21759;DHT22;11041;50.854;20.580;2023-06-14T00:23:05;12.80;99.90
21759;DHT22;11041;50.854;20.580;2023-06-14T00:25:32;12.90;99.90
21759;DHT22;11041;50.854;20.580;2023-06-14T00:27:58;12.80;99.90
21759;DHT22;11041;50.854;20.580;2023-06-14T00:30:25;12.70;99.90
21759;DHT22;11041;50.854;20.580;2023-06-14T00:32:56;12.60;99.90
21759;DHT22;11041;50.854;20.580;2023-06-14T00:35:24;12.50;99.90
21759;DHT22;11041;50.854;20.580;2023-06-14T00:37:51;12.50;99.90
21759;DHT22;11041;50.854;20.580;2023-06-14T00:40:18;12.60;99.90
21759;DHT22;11041;50.854;20.580;2023-06-14T00:42:44;12.50;99.90
21759;DHT22;11041;50.854;20.580;2023-06-14T00:45:11;12.50;99.90
21759;DHT22;11041;50.854;20.580;2023-06-14T00:47:38;12.50;99.90
21759;DHT22;11041;50.854;20.580;2023-06-14T00:50:09;12.50;99.90
21759;DHT22;11041;50.854;20.580;2023-06-14T00:52:37;12.50;99.90
21759;DHT22;11041;50.854;20.580;2023-06-14T00:55:04;12.50;99.90
21759;DHT22;11041;50.854;20.580;2023-06-14T00:57:31;12.60;99.90
21759;DHT22;11041;50.854;20.580;2023-06-14T00:59:58;12.50;99.90
21759;DHT22;11041;50.854;20.580;2023-06-14T01:02:24;12.50;99.90
21759;DHT22;11041;50.854;20.580;2023-06-14T01:04:52;12.50;99.90
21759;DHT22;11041;50.854;20.580;2023-06-14T01:13:40;12.60;99.90
21759;DHT22;11041;50.854;20.580;2023-06-14T01:16:12;12.60;99.90
21759;DHT22;11041;50.854;20.580;2023-06-14T01:18:40;12.70;99.90
21759;DHT22;11041;50.854;20.580;2023-06-14T01:21:25;12.70;99.90
21759;DHT22;11041;50.854;20.580;2023-06-14T01:23:54;12.60;99.90
21759;DHT22;11041;50.854;20.580;2023-06-14T01:26:25;12.50;99.90
21759;DHT22;11041;50.854;20.580;2023-06-14T01:28:55;12.50;99.90
21759;DHT22;11041;50.854;20.580;2023-06-14T01:31:25;12.50;99.90
21759;DHT22;11041;50.854;20.580;2023-06-14T01:33:53;12.50;99.90
21759;DHT22;11041;50.854;20.580;2023-06-14T01:36:22;12.40;99.90
21759;DHT22;11041;50.854;20.580;2023-06-14T01:38:53;12.40;99.90
21759;DHT22;11041;50.854;20.580;2023-06-14T01:41:22;12.50;99.90
21759;DHT22;11041;50.854;20.580;2023-06-14T01:43:51;12.50;99.90
21759;DHT22;11041;50.854;20.580;2023-06-14T01:46:19;12.60;99.90
21759;DHT22;11041;50.854;20.580;2023-06-14T01:48:46;12.60;99.90
21759;DHT22;11041;50.854;20.580;2023-06-14T01:51:13;12.70;99.90
21759;DHT22;11041;50.854;20.580;2023-06-14T01:53:40;12.70;99.90
21759;DHT22;11041;50.854;20.580;2023-06-14T01:56:07;12.60;99.90
21759;DHT22;11041;50.854;20.580;2023-06-14T01:58:33;12.60;99.90
21759;DHT22;11041;50.854;20.580;2023-06-14T02:01:00;12.60;99.90
21759;DHT22;11041;50.854;20.580;2023-06-14T02:03:26;12.60;99.90
21759;DHT22;11041;50.854;20.580;2023-06-14T02:05:53;12.70;99.90
21759;DHT22;11041;50.854;20.580;2023-06-14T02:08:21;12.70;99.90
21759;DHT22;11041;50.854;20.580;2023-06-14T02:10:49;12.70;99.90
21759;DHT22;11041;50.854;20.580;2023-06-14T02:13:15;12.70;99.90
21759;DHT22;11041;50.854;20.580;2023-06-14T02:15:43;12.80;99.90
21759;DHT22;11041;50.854;20.580;2023-06-14T02:18:10;12.80;99.90
21759;DHT22;11041;50.854;20.580;2023-06-14T02:20:37;12.90;99.90
21759;DHT22;11041;50.854;20.580;2023-06-14T02:23:04;12.90;99.90
21759;DHT22;11041;50.854;20.580;2023-06-14T02:25:31;12.80;99.90
21759;DHT22;11041;50.854;20.580;2023-06-14T02:27:57;12.90;99.90
21759;DHT22;11041;50.854;20.580;2023-06-14T02:30:24;12.90;99.90
21759;DHT22;11041;50.854;20.580;2023-06-14T02:32:50;12.90;99.90
21759;DHT22;11041;50.854;20.580;2023-06-14T02:35:17;12.70;99.90
21759;DHT22;11041;50.854;20.580;2023-06-14T02:37:43;12.60;99.90
21759;DHT22;11041;50.854;20.580;2023-06-14T02:40:10;12.50;99.90
21759;DHT22;11041;50.854;20.580;2023-06-14T02:42:37;12.50;99.90
21759;DHT22;11041;50.854;20.580;2023-06-14T02:45:04;12.50;99.90
21759;DHT22;11041;50.854;20.580;2023-06-14T02:47:31;12.50;99.90
21759;DHT22;11041;50.854;20.580;2023-06-14T02:49:58;12.50;99.90
21759;DHT22;11041;50.854;20.580;2023-06-14T02:52:24;12.60;99.90
21759;DHT22;11041;50.854;20.580;2023-06-14T02:54:51;12.50;99.90
21759;DHT22;11041;50.854;20.580;2023-06-14T02:57:17;12.50;99.90
21759;DHT22;11041;50.854;20.580;2023-06-14T02:59:44;12.50;99.90
21759;DHT22;11041;50.854;20.580;2023-06-14T03:02:10;12.60;99.90
21759;DHT22;11041;50.854;20.580;2023-06-14T03:04:37;12.70;99.90
21759;DHT22;11041;50.854;20.580;2023-06-14T03:07:04;12.60;99.90
21759;DHT22;11041;50.854;20.580;2023-06-14T03:09:38;12.60;99.90
21759;DHT22;11041;50.854;20.580;2023-06-14T03:12:06;12.60;99.90
21759;DHT22;11041;50.854;20.580;2023-06-14T03:14:34;12.70;99.90
21759;DHT22;11041;50.854;20.580;2023-06-14T03:17:01;12.70;99.90
21759;DHT22;11041;50.854;20.580;2023-06-14T03:19:28;12.70;99.90
21759;DHT22;11041;50.854;20.580;2023-06-14T03:21:54;12.70;99.90
21759;DHT22;11041;50.854;20.580;2023-06-14T03:24:26;12.70;99.90
21759;DHT22;11041;50.854;20.580;2023-06-14T03:27:03;12.70;99.90
21759;DHT22;11041;50.854;20.580;2023-06-14T03:29:30;12.80;99.90
21759;DHT22;11041;50.854;20.580;2023-06-14T03:31:58;12.70;99.90
21759;DHT22;11041;50.854;20.580;2023-06-14T03:34:27;12.70;99.90
21759;DHT22;11041;50.854;20.580;2023-06-14T03:36:53;12.60;99.90
21759;DHT22;11041;50.854;20.580;2023-06-14T03:39:20;12.70;99.90
21759;DHT22;11041;50.854;20.580;2023-06-14T03:41:47;12.60;99.90
21759;DHT22;11041;50.854;20.580;2023-06-14T03:44:16;12.70;99.90
21759;DHT22;11041;50.854;20.580;2023-06-14T03:46:45;12.80;99.90
21759;DHT22;11041;50.854;20.580;2023-06-14T03:49:13;12.90;99.90
21759;DHT22;11041;50.854;20.580;2023-06-14T03:51:39;13.10;99.90
21759;DHT22;11041;50.854;20.580;2023-06-14T03:54:06;13.20;99.90
21759;DHT22;11041;50.854;20.580;2023-06-14T03:56:33;13.20;99.90
21759;DHT22;11041;50.854;20.580;2023-06-14T03:59:01;13.20;99.90
21759;DHT22;11041;50.854;20.580;2023-06-14T04:01:28;13.10;99.90
21759;DHT22;11041;50.854;20.580;2023-06-14T04:03:56;13.10;99.90
21759;DHT22;11041;50.854;20.580;2023-06-14T04:06:23;13.10;99.90
21759;DHT22;11041;50.854;20.580;2023-06-14T04:08:51;13.20;99.90
21759;DHT22;11041;50.854;20.580;2023-06-14T04:11:18;13.30;99.90
21759;DHT22;11041;50.854;20.580;2023-06-14T04:13:44;13.30;99.90
21759;DHT22;11041;50.854;20.580;2023-06-14T04:16:11;13.50;99.90
21759;DHT22;11041;50.854;20.580;2023-06-14T04:18:37;13.40;99.90
21759;DHT22;11041;50.854;20.580;2023-06-14T04:21:04;13.50;99.90
21759;DHT22;11041;50.854;20.580;2023-06-14T04:23:30;13.40;99.90
21759;DHT22;11041;50.854;20.580;2023-06-14T04:25:58;13.40;99.90
21759;DHT22;11041;50.854;20.580;2023-06-14T04:28:28;13.30;99.90
21759;DHT22;11041;50.854;20.580;2023-06-14T04:30:56;13.30;99.90
21759;DHT22;11041;50.854;20.580;2023-06-14T04:33:23;13.30;99.90
21759;DHT22;11041;50.854;20.580;2023-06-14T04:35:51;13.40;99.90
21759;DHT22;11041;50.854;20.580;2023-06-14T04:38:20;13.40;99.90
21759;DHT22;11041;50.854;20.580;2023-06-14T04:40:51;13.40;99.90
21759;DHT22;11041;50.854;20.580;2023-06-14T04:43:19;13.40;99.90
21759;DHT22;11041;50.854;20.580;2023-06-14T04:45:52;13.30;99.90
21759;DHT22;11041;50.854;20.580;2023-06-14T04:48:21;13.30;99.90
21759;DHT22;11041;50.854;20.580;2023-06-14T04:50:48;13.20;99.90
21759;DHT22;11041;50.854;20.580;2023-06-14T04:53:20;13.30;99.90
21759;DHT22;11041;50.854;20.580;2023-06-14T04:55:49;13.40;99.90
21759;DHT22;11041;50.854;20.580;2023-06-14T04:58:16;13.40;99.90
21759;DHT22;11041;50.854;20.580;2023-06-14T05:00:43;13.50;99.90
21759;DHT22;11041;50.854;20.580;2023-06-14T05:03:10;13.50;99.90
21759;DHT22;11041;50.854;20.580;2023-06-14T05:05:41;13.50;99.90
21759;DHT22;11041;50.854;20.580;2023-06-14T05:08:08;13.40;99.90
21759;DHT22;11041;50.854;20.580;2023-06-14T05:10:36;13.40;99.90
21759;DHT22;11041;50.854;20.580;2023-06-14T05:13:03;13.40;99.90
21759;DHT22;11041;50.854;20.580;2023-06-14T05:15:29;13.50;99.90
21759;DHT22;11041;50.854;20.580;2023-06-14T05:17:56;13.50;99.90
21759;DHT22;11041;50.854;20.580;2023-06-14T05:20:24;13.50;99.90
21759;DHT22;11041;50.854;20.580;2023-06-14T05:22:53;13.50;99.90
21759;DHT22;11041;50.854;20.580;2023-06-14T05:25:20;13.60;99.90
21759;DHT22;11041;50.854;20.580;2023-06-14T05:27:48;13.60;99.90
21759;DHT22;11041;50.854;20.580;2023-06-14T05:30:15;13.60;99.90
21759;DHT22;11041;50.854;20.580;2023-06-14T05:32:42;13.60;99.90
21759;DHT22;11041;50.854;20.580;2023-06-14T05:35:08;13.50;99.90
21759;DHT22;11041;50.854;20.580;2023-06-14T05:37:36;13.50;99.90
21759;DHT22;11041;50.854;20.580;2023-06-14T05:40:07;13.50;99.90
21759;DHT22;11041;50.854;20.580;2023-06-14T05:42:35;13.60;99.90
21759;DHT22;11041;50.854;20.580;2023-06-14T05:45:02;13.80;99.90
21759;DHT22;11041;50.854;20.580;2023-06-14T05:47:29;13.80;99.90
21759;DHT22;11041;50.854;20.580;2023-06-14T05:49:55;14.00;99.90
21759;DHT22;11041;50.854;20.580;2023-06-14T05:52:22;14.00;99.90
21759;DHT22;11041;50.854;20.580;2023-06-14T05:54:48;14.00;99.90
21759;DHT22;11041;50.854;20.580;2023-06-14T05:57:15;13.90;99.90
21759;DHT22;11041;50.854;20.580;2023-06-14T05:59:42;13.90;99.90
21759;DHT22;11041;50.854;20.580;2023-06-14T06:02:09;14.10;99.90
21759;DHT22;11041;50.854;20.580;2023-06-14T06:04:35;13.90;99.90
21759;DHT22;11041;50.854;20.580;2023-06-14T06:07:02;13.90;99.90
21759;DHT22;11041;50.854;20.580;2023-06-14T06:09:29;13.90;99.90
21759;DHT22;11041;50.854;20.580;2023-06-14T06:11:56;14.10;99.90
21759;DHT22;11041;50.854;20.580;2023-06-14T06:14:22;14.20;99.90
21759;DHT22;11041;50.854;20.580;2023-06-14T06:16:49;14.80;99.90
21759;DHT22;11041;50.854;20.580;2023-06-14T06:19:15;14.30;99.90
21759;DHT22;11041;50.854;20.580;2023-06-14T06:21:42;14.30;99.90
21759;DHT22;11041;50.854;20.580;2023-06-14T06:24:08;14.40;99.90
21759;DHT22;11041;50.854;20.580;2023-06-14T06:27:00;14.50;99.90
21759;DHT22;11041;50.854;20.580;2023-06-14T06:29:52;14.60;99.90
21759;DHT22;11041;50.854;20.580;2023-06-14T06:32:43;14.80;99.90
21759;DHT22;11041;50.854;20.580;2023-06-14T06:35:35;14.90;99.90
21759;DHT22;11041;50.854;20.580;2023-06-14T06:38:27;14.80;99.90
21759;DHT22;11041;50.854;20.580;2023-06-14T06:41:19;14.50;99.90
21759;DHT22;11041;50.854;20.580;2023-06-14T06:44:10;14.40;99.90
21759;DHT22;11041;50.854;20.580;2023-06-14T06:47:01;14.40;99.90
21759;DHT22;11041;50.854;20.580;2023-06-14T07:12:08;15.40;99.90
21759;DHT22;11041;50.854;20.580;2023-06-14T07:14:35;15.30;99.90
21759;DHT22;11041;50.854;20.580;2023-06-14T07:17:01;15.40;99.90
21759;DHT22;11041;50.854;20.580;2023-06-14T07:19:28;15.40;99.90
21759;DHT22;11041;50.854;20.580;2023-06-14T07:21:56;15.60;99.90
21759;DHT22;11041;50.854;20.580;2023-06-14T07:24:24;15.70;99.90
21759;DHT22;11041;50.854;20.580;2023-06-14T07:26:51;15.60;99.90
21759;DHT22;11041;50.854;20.580;2023-06-14T07:29:17;15.60;99.90
21759;DHT22;11041;50.854;20.580;2023-06-14T07:31:44;15.70;99.90
21759;DHT22;11041;50.854;20.580;2023-06-14T07:34:11;15.70;99.90
21759;DHT22;11041;50.854;20.580;2023-06-14T07:36:37;16.00;99.90
21759;DHT22;11041;50.854;20.580;2023-06-14T07:39:04;15.90;99.90
21759;DHT22;11041;50.854;20.580;2023-06-14T07:41:32;15.80;99.90
21759;DHT22;11041;50.854;20.580;2023-06-14T07:43:59;15.90;99.90
21759;DHT22;11041;50.854;20.580;2023-06-14T07:46:26;16.00;99.90
21759;DHT22;11041;50.854;20.580;2023-06-14T07:48:52;15.60;99.90
21759;DHT22;11041;50.854;20.580;2023-06-14T07:51:19;15.40;99.90
21759;DHT22;11041;50.854;20.580;2023-06-14T07:53:46;15.30;99.90
21759;DHT22;11041;50.854;20.580;2023-06-14T07:56:13;15.40;99.90
21759;DHT22;11041;50.854;20.580;2023-06-14T07:58:39;15.50;99.90
21759;DHT22;11041;50.854;20.580;2023-06-14T08:01:05;15.60;99.90
21759;DHT22;11041;50.854;20.580;2023-06-14T08:03:34;15.60;99.90
21759;DHT22;11041;50.854;20.580;2023-06-14T08:06:00;15.60;99.90
21759;DHT22;11041;50.854;20.580;2023-06-14T08:08:27;15.60;99.90
21759;DHT22;11041;50.854;20.580;2023-06-14T08:10:57;15.80;99.90
21759;DHT22;11041;50.854;20.580;2023-06-14T08:13:24;15.90;99.90
21759;DHT22;11041;50.854;20.580;2023-06-14T08:15:50;15.80;99.90
21759;DHT22;11041;50.854;20.580;2023-06-14T08:18:17;15.70;99.90
21759;DHT22;11041;50.854;20.580;2023-06-14T08:20:44;15.70;99.90
21759;DHT22;11041;50.854;20.580;2023-06-14T08:23:11;15.50;99.90
21759;DHT22;11041;50.854;20.580;2023-06-14T08:25:37;15.70;99.90
21759;DHT22;11041;50.854;20.580;2023-06-14T08:28:04;15.90;99.90
21759;DHT22;11041;50.854;20.580;2023-06-14T08:30:30;16.00;99.90
21759;DHT22;11041;50.854;20.580;2023-06-14T08:32:57;16.10;99.90
21759;DHT22;11041;50.854;20.580;2023-06-14T08:35:23;16.10;99.90
21759;DHT22;11041;50.854;20.580;2023-06-14T08:37:50;16.30;99.90
21759;DHT22;11041;50.854;20.580;2023-06-14T08:40:22;16.30;99.90
21759;DHT22;11041;50.854;20.580;2023-06-14T08:42:53;16.40;99.90
21759;DHT22;11041;50.854;20.580;2023-06-14T08:45:21;16.60;99.90
21759;DHT22;11041;50.854;20.580;2023-06-14T08:47:49;16.50;99.90
21759;DHT22;11041;50.854;20.580;2023-06-14T08:50:21;16.70;99.90
21759;DHT22;11041;50.854;20.580;2023-06-14T08:52:54;16.60;99.90
21759;DHT22;11041;50.854;20.580;2023-06-14T08:55:23;16.30;99.90
21759;DHT22;11041;50.854;20.580;2023-06-14T08:57:57;16.00;99.90
21759;DHT22;11041;50.854;20.580;2023-06-14T09:00:25;16.10;99.90
21759;DHT22;11041;50.854;20.580;2023-06-14T09:02:54;16.40;99.90
21759;DHT22;11041;50.854;20.580;2023-06-14T09:05:25;16.40;99.90
21759;DHT22;11041;50.854;20.580;2023-06-14T09:07:53;16.50;99.90
21759;DHT22;11041;50.854;20.580;2023-06-14T09:10:27;16.40;99.90
21759;DHT22;11041;50.854;20.580;2023-06-14T09:12:55;16.40;99.90
21759;DHT22;11041;50.854;20.580;2023-06-14T09:15:23;16.60;99.90
21759;DHT22;11041;50.854;20.580;2023-06-14T09:17:50;16.80;99.90
21759;DHT22;11041;50.854;20.580;2023-06-14T09:20:17;16.90;99.90
21759;DHT22;11041;50.854;20.580;2023-06-14T09:22:45;16.80;99.90
21759;DHT22;11041;50.854;20.580;2023-06-14T09:25:11;16.60;99.90
21759;DHT22;11041;50.854;20.580;2023-06-14T09:27:41;16.40;99.90
21759;DHT22;11041;50.854;20.580;2023-06-14T09:30:11;16.30;99.90
21759;DHT22;11041;50.854;20.580;2023-06-14T09:32:39;16.30;99.90
21759;DHT22;11041;50.854;20.580;2023-06-14T09:35:07;16.10;99.90
21759;DHT22;11041;50.854;20.580;2023-06-14T09:37:36;16.20;99.90
21759;DHT22;11041;50.854;20.580;2023-06-14T09:40:06;16.10;99.90
21759;DHT22;11041;50.854;20.580;2023-06-14T09:42:33;16.30;99.90
21759;DHT22;11041;50.854;20.580;2023-06-14T09:45:02;16.10;99.90
21759;DHT22;11041;50.854;20.580;2023-06-14T09:47:30;16.10;99.90
21759;DHT22;11041;50.854;20.580;2023-06-14T09:49:56;16.20;99.90
21759;DHT22;11041;50.854;20.580;2023-06-14T09:52:23;16.20;99.90
21759;DHT22;11041;50.854;20.580;2023-06-14T09:54:52;16.00;99.90
21759;DHT22;11041;50.854;20.580;2023-06-14T09:57:23;15.90;99.90
21759;DHT22;11041;50.854;20.580;2023-06-14T09:59:57;15.70;99.90
21759;DHT22;11041;50.854;20.580;2023-06-14T10:02:40;15.70;99.90
21759;DHT22;11041;50.854;20.580;2023-06-14T10:05:15;15.60;99.90
21759;DHT22;11041;50.854;20.580;2023-06-14T10:07:55;15.60;99.90
21759;DHT22;11041;50.854;20.580;2023-06-14T10:10:26;15.60;99.90
21759;DHT22;11041;50.854;20.580;2023-06-14T10:12:53;15.50;99.90
21759;DHT22;11041;50.854;20.580;2023-06-14T10:15:38;15.50;99.90
21759;DHT22;11041;50.854;20.580;2023-06-14T10:24:12;15.50;99.90
21759;DHT22;11041;50.854;20.580;2023-06-14T10:26:56;15.50;99.90
21759;DHT22;11041;50.854;20.580;2023-06-14T10:29:25;15.40;99.90
21759;DHT22;11041;50.854;20.580;2023-06-14T10:31:57;15.60;99.90
21759;DHT22;11041;50.854;20.580;2023-06-14T10:34:26;15.60;99.90
21759;DHT22;11041;50.854;20.580;2023-06-14T10:37:11;15.60;99.90
21759;DHT22;11041;50.854;20.580;2023-06-14T10:39:41;15.70;99.90
21759;DHT22;11041;50.854;20.580;2023-06-14T10:42:10;15.70;99.90
21759;DHT22;11041;50.854;20.580;2023-06-14T10:44:45;15.70;99.90
21759;DHT22;11041;50.854;20.580;2023-06-14T10:47:23;15.50;99.90
21759;DHT22;11041;50.854;20.580;2023-06-14T10:49:53;15.40;99.90
21759;DHT22;11041;50.854;20.580;2023-06-14T10:52:40;15.40;99.90
21759;DHT22;11041;50.854;20.580;2023-06-14T10:55:14;15.30;99.90
21759;DHT22;11041;50.854;20.580;2023-06-14T10:57:44;15.50;99.90
21759;DHT22;11041;50.854;20.580;2023-06-14T11:00:13;15.40;99.90
21759;DHT22;11041;50.854;20.580;2023-06-14T11:05:52;15.40;99.90
21759;DHT22;11041;50.854;20.580;2023-06-14T11:11:35;15.30;99.90
21759;DHT22;11041;50.854;20.580;2023-06-14T11:14:04;15.30;99.90
21759;DHT22;11041;50.854;20.580;2023-06-14T11:16:31;15.40;99.90
21759;DHT22;11041;50.854;20.580;2023-06-14T11:19:01;15.60;99.90
21759;DHT22;11041;50.854;20.580;2023-06-14T11:21:32;15.60;99.90
21759;DHT22;11041;50.854;20.580;2023-06-14T11:23:59;15.70;99.90
21759;DHT22;11041;50.854;20.580;2023-06-14T11:26:30;15.70;99.90
21759;DHT22;11041;50.854;20.580;2023-06-14T11:29:00;15.70;99.90
21759;DHT22;11041;50.854;20.580;2023-06-14T11:31:28;15.80;99.90
21759;DHT22;11041;50.854;20.580;2023-06-14T11:33:57;15.90;99.90
21759;DHT22;11041;50.854;20.580;2023-06-14T11:36:29;16.10;99.90
21759;DHT22;11041;50.854;20.580;2023-06-14T11:39:01;16.40;99.90
21759;DHT22;11041;50.854;20.580;2023-06-14T11:41:35;16.40;99.90
21759;DHT22;11041;50.854;20.580;2023-06-14T11:44:03;16.40;99.90
21759;DHT22;11041;50.854;20.580;2023-06-14T11:46:30;16.40;99.90
21759;DHT22;11041;50.854;20.580;2023-06-14T11:48:57;16.50;99.90
21759;DHT22;11041;50.854;20.580;2023-06-14T11:51:24;16.70;99.90
21759;DHT22;11041;50.854;20.580;2023-06-14T11:53:51;16.80;99.90
21759;DHT22;11041;50.854;20.580;2023-06-14T11:56:18;16.80;99.90
21759;DHT22;11041;50.854;20.580;2023-06-14T11:58:45;16.70;99.90
21759;DHT22;11041;50.854;20.580;2023-06-14T12:01:19;16.60;99.90
21759;DHT22;11041;50.854;20.580;2023-06-14T12:03:53;16.70;99.90
21759;DHT22;11041;50.854;20.580;2023-06-14T12:06:29;16.60;99.90
21759;DHT22;11041;50.854;20.580;2023-06-14T12:09:05;16.70;99.90
21759;DHT22;11041;50.854;20.580;2023-06-14T12:11:38;16.50;99.90
21759;DHT22;11041;50.854;20.580;2023-06-14T12:14:05;16.50;99.90
21759;DHT22;11041;50.854;20.580;2023-06-14T12:16:39;16.60;99.90
21759;DHT22;11041;50.854;20.580;2023-06-14T12:19:14;16.60;99.90
21759;DHT22;11041;50.854;20.580;2023-06-14T12:21:45;16.40;99.90
21759;DHT22;11041;50.854;20.580;2023-06-14T12:24:17;16.40;99.90
21759;DHT22;11041;50.854;20.580;2023-06-14T12:26:43;16.40;99.90
21759;DHT22;11041;50.854;20.580;2023-06-14T12:29:10;16.40;99.90
21759;DHT22;11041;50.854;20.580;2023-06-14T12:31:38;16.50;99.90
21759;DHT22;11041;50.854;20.580;2023-06-14T12:34:04;16.60;99.90
21759;DHT22;11041;50.854;20.580;2023-06-14T12:36:31;16.50;99.90
21759;DHT22;11041;50.854;20.580;2023-06-14T12:38:58;16.50;99.90
21759;DHT22;11041;50.854;20.580;2023-06-14T12:41:24;16.50;99.90
21759;DHT22;11041;50.854;20.580;2023-06-14T12:43:52;16.50;99.90
21759;DHT22;11041;50.854;20.580;2023-06-14T12:46:19;16.50;99.90
21759;DHT22;11041;50.854;20.580;2023-06-14T12:48:46;16.50;99.90
21759;DHT22;11041;50.854;20.580;2023-06-14T12:51:13;16.50;99.90
21759;DHT22;11041;50.854;20.580;2023-06-14T12:53:40;16.60;99.90
21759;DHT22;11041;50.854;20.580;2023-06-14T12:56:06;16.60;99.90
21759;DHT22;11041;50.854;20.580;2023-06-14T12:58:33;16.50;99.90
21759;DHT22;11041;50.854;20.580;2023-06-14T13:00:59;16.50;99.90
21759;DHT22;11041;50.854;20.580;2023-06-14T13:03:26;16.40;99.90
21759;DHT22;11041;50.854;20.580;2023-06-14T13:05:53;16.40;99.90
21759;DHT22;11041;50.854;20.580;2023-06-14T13:08:19;16.40;99.90
21759;DHT22;11041;50.854;20.580;2023-06-14T13:10:46;16.50;99.90
21759;DHT22;11041;50.854;20.580;2023-06-14T13:13:12;16.50;99.90
21759;DHT22;11041;50.854;20.580;2023-06-14T13:15:39;16.50;99.90
21759;DHT22;11041;50.854;20.580;2023-06-14T13:18:06;16.40;99.90
21759;DHT22;11041;50.854;20.580;2023-06-14T13:20:32;16.40;99.90
21759;DHT22;11041;50.854;20.580;2023-06-14T13:22:59;16.40;99.90
21759;DHT22;11041;50.854;20.580;2023-06-14T13:25:25;16.40;99.90
21759;DHT22;11041;50.854;20.580;2023-06-14T13:27:52;16.30;99.90
21759;DHT22;11041;50.854;20.580;2023-06-14T13:30:18;16.40;99.90
21759;DHT22;11041;50.854;20.580;2023-06-14T13:32:46;16.40;99.90
21759;DHT22;11041;50.854;20.580;2023-06-14T13:35:14;16.20;99.90
21759;DHT22;11041;50.854;20.580;2023-06-14T13:37:40;16.20;99.90
21759;DHT22;11041;50.854;20.580;2023-06-14T13:40:07;16.10;99.90
21759;DHT22;11041;50.854;20.580;2023-06-14T13:42:34;16.10;99.90
21759;DHT22;11041;50.854;20.580;2023-06-14T13:45:03;16.00;99.90
21759;DHT22;11041;50.854;20.580;2023-06-14T13:47:30;16.00;99.90
21759;DHT22;11041;50.854;20.580;2023-06-14T13:49:57;15.80;99.90
21759;DHT22;11041;50.854;20.580;2023-06-14T13:52:24;15.10;99.90
21759;DHT22;11041;50.854;20.580;2023-06-14T13:54:51;14.50;99.90
21759;DHT22;11041;50.854;20.580;2023-06-14T13:57:18;13.80;99.90
21759;DHT22;11041;50.854;20.580;2023-06-14T13:59:44;13.50;99.90
21759;DHT22;11041;50.854;20.580;2023-06-14T14:02:11;13.20;99.90
21759;DHT22;11041;50.854;20.580;2023-06-14T14:04:39;13.20;99.90
21759;DHT22;11041;50.854;20.580;2023-06-14T14:07:07;13.10;99.90
21759;DHT22;11041;50.854;20.580;2023-06-14T14:09:35;13.30;99.90
21759;DHT22;11041;50.854;20.580;2023-06-14T14:12:02;13.50;99.90
21759;DHT22;11041;50.854;20.580;2023-06-14T14:14:31;13.70;99.90
21759;DHT22;11041;50.854;20.580;2023-06-14T14:16:58;13.80;99.90
21759;DHT22;11041;50.854;20.580;2023-06-14T14:19:26;13.90;99.90
21759;DHT22;11041;50.854;20.580;2023-06-14T14:21:53;14.00;99.90
21759;DHT22;11041;50.854;20.580;2023-06-14T14:24:19;14.10;99.90
21759;DHT22;11041;50.854;20.580;2023-06-14T14:26:46;14.20;99.90
21759;DHT22;11041;50.854;20.580;2023-06-14T14:29:16;14.20;99.90
21759;DHT22;11041;50.854;20.580;2023-06-14T14:31:45;14.20;99.90
21759;DHT22;11041;50.854;20.580;2023-06-14T14:34:24;14.30;99.90
21759;DHT22;11041;50.854;20.580;2023-06-14T14:36:54;14.30;99.90
21759;DHT22;11041;50.854;20.580;2023-06-14T14:39:21;14.30;99.90
21759;DHT22;11041;50.854;20.580;2023-06-14T14:41:47;14.30;99.90
21759;DHT22;11041;50.854;20.580;2023-06-14T14:44:14;14.30;99.90
21759;DHT22;11041;50.854;20.580;2023-06-14T14:46:40;14.30;99.90
21759;DHT22;11041;50.854;20.580;2023-06-14T14:49:08;14.40;99.90
21759;DHT22;11041;50.854;20.580;2023-06-14T14:51:51;14.40;99.90
21759;DHT22;11041;50.854;20.580;2023-06-14T14:54:18;14.50;99.90
21759;DHT22;11041;50.854;20.580;2023-06-14T14:56:44;14.50;99.90
21759;DHT22;11041;50.854;20.580;2023-06-14T14:59:11;14.50;99.90
21759;DHT22;11041;50.854;20.580;2023-06-14T15:01:37;14.50;99.90
21759;DHT22;11041;50.854;20.580;2023-06-14T15:04:04;14.50;99.90
21759;DHT22;11041;50.854;20.580;2023-06-14T15:06:31;14.50;99.90
21759;DHT22;11041;50.854;20.580;2023-06-14T15:08:57;14.60;99.90
21759;DHT22;11041;50.854;20.580;2023-06-14T15:11:23;14.50;99.90
21759;DHT22;11041;50.854;20.580;2023-06-14T15:13:50;14.50;99.90
21759;DHT22;11041;50.854;20.580;2023-06-14T15:16:17;14.50;99.90
21759;DHT22;11041;50.854;20.580;2023-06-14T15:18:44;14.50;99.90
21759;DHT22;11041;50.854;20.580;2023-06-14T15:21:11;14.40;99.90
21759;DHT22;11041;50.854;20.580;2023-06-14T15:23:38;14.50;99.90
21759;DHT22;11041;50.854;20.580;2023-06-14T15:26:06;14.50;99.90
21759;DHT22;11041;50.854;20.580;2023-06-14T15:28:34;14.50;99.90
21759;DHT22;11041;50.854;20.580;2023-06-14T15:31:00;14.60;99.90
21759;DHT22;11041;50.854;20.580;2023-06-14T15:33:27;14.60;99.90
21759;DHT22;11041;50.854;20.580;2023-06-14T15:35:54;14.60;99.90
21759;DHT22;11041;50.854;20.580;2023-06-14T15:38:20;14.60;99.90
21759;DHT22;11041;50.854;20.580;2023-06-14T15:40:48;14.60;99.90
21759;DHT22;11041;50.854;20.580;2023-06-14T15:43:15;14.70;99.90
21759;DHT22;11041;50.854;20.580;2023-06-14T15:45:41;14.80;99.90
21759;DHT22;11041;50.854;20.580;2023-06-14T15:48:09;14.70;99.90
21759;DHT22;11041;50.854;20.580;2023-06-14T15:50:36;14.40;99.90
21759;DHT22;11041;50.854;20.580;2023-06-14T15:53:03;14.40;99.90
21759;DHT22;11041;50.854;20.580;2023-06-14T15:55:29;14.30;99.90
21759;DHT22;11041;50.854;20.580;2023-06-14T15:57:56;14.30;99.90
21759;DHT22;11041;50.854;20.580;2023-06-14T16:00:22;14.40;99.90
21759;DHT22;11041;50.854;20.580;2023-06-14T16:02:51;14.50;99.90
21759;DHT22;11041;50.854;20.580;2023-06-14T16:05:18;14.70;99.90